createdAt,value
2023-01-19T00:00:46.660Z,1.60
2023-01-19T00:03:17.935Z,1.60
2023-01-19T00:05:44.832Z,1.60
2023-01-19T00:08:17.738Z,1.60
2023-01-19T00:10:48.847Z,1.60
2023-01-19T00:13:15.659Z,1.60
2023-01-19T00:15:42.775Z,1.60
2023-01-19T00:18:10.902Z,1.60
2023-01-19T00:20:38.599Z,1.60
2023-01-19T00:23:07.515Z,1.60
2023-01-19T00:25:34.389Z,1.60
2023-01-19T00:28:01.869Z,1.50
2023-01-19T00:30:29.187Z,1.50
2023-01-19T00:32:56.303Z,1.50
2023-01-19T00:35:23.165Z,1.50
2023-01-19T00:37:49.889Z,1.50
2023-01-19T00:40:17.120Z,1.50
2023-01-19T00:42:48.442Z,1.50
2023-01-19T00:45:16.513Z,1.40
2023-01-19T00:47:43.269Z,1.40
2023-01-19T00:50:13.645Z,1.40
2023-01-19T00:52:40.563Z,1.40
2023-01-19T00:55:08.227Z,1.40
2023-01-19T00:57:35.142Z,1.40
2023-01-19T01:00:02.194Z,1.40
2023-01-19T01:02:29.285Z,1.40
2023-01-19T01:04:56.769Z,1.40
2023-01-19T01:07:24.176Z,1.40
2023-01-19T01:09:51.313Z,1.40
2023-01-19T01:12:18.119Z,1.40
2023-01-19T01:14:44.963Z,1.40
2023-01-19T01:17:14.212Z,1.30
2023-01-19T01:19:41.563Z,1.30
2023-01-19T01:22:11.380Z,1.30
2023-01-19T01:24:38.220Z,1.30
2023-01-19T01:27:05.042Z,1.20
2023-01-19T01:29:31.820Z,1.20
2023-01-19T01:31:58.682Z,1.20
2023-01-19T01:34:25.423Z,1.20
2023-01-19T01:36:52.269Z,1.20
2023-01-19T01:39:18.997Z,1.20
2023-01-19T01:41:45.775Z,1.20
2023-01-19T01:44:51.398Z,1.10
2023-01-19T01:47:32.099Z,1.10
2023-01-19T01:50:15.283Z,1.10
2023-01-19T01:53:06.397Z,1.10
2023-01-19T01:55:33.419Z,1.10
2023-01-19T01:58:02.630Z,1.10
2023-01-19T02:00:49.681Z,1.10
2023-01-19T02:03:16.545Z,1.10
2023-01-19T02:05:43.765Z,1.10
2023-01-19T02:08:34.944Z,1.10
2023-01-19T02:11:20.754Z,1.00
2023-01-19T02:13:47.707Z,1.00
2023-01-19T02:16:15.478Z,1.00
2023-01-19T02:18:42.935Z,1.00
2023-01-19T02:21:20.568Z,1.00
2023-01-19T02:23:54.528Z,1.00
2023-01-19T02:26:23.547Z,1.00
2023-01-19T02:28:58.126Z,1.00
2023-01-19T02:31:25.183Z,0.90
2023-01-19T02:33:52.727Z,0.90
2023-01-19T02:36:25.807Z,0.90
2023-01-19T02:38:53.623Z,0.90
2023-01-19T02:41:21.379Z,0.90
2023-01-19T02:43:48.622Z,0.90
2023-01-19T02:46:18.075Z,0.90
2023-01-19T02:48:44.981Z,0.90
2023-01-19T02:51:16.872Z,0.90
2023-01-19T02:53:58.699Z,0.80
2023-01-19T02:56:37.401Z,0.80
2023-01-19T02:59:12.759Z,0.80
2023-01-19T03:02:17.613Z,0.80
2023-01-19T03:04:44.444Z,0.80
2023-01-19T03:07:25.256Z,0.80
2023-01-19T03:10:01.478Z,0.80
2023-01-19T03:12:50.103Z,0.70
2023-01-19T03:15:30.504Z,0.80
2023-01-19T03:17:57.507Z,0.70
2023-01-19T03:20:25.407Z,0.70
2023-01-19T03:22:54.647Z,0.70
2023-01-19T03:25:21.699Z,0.70
2023-01-19T03:27:48.752Z,0.70
2023-01-19T03:30:22.704Z,0.70
2023-01-19T03:32:57.524Z,0.70
2023-01-19T03:35:25.209Z,0.70
2023-01-19T03:37:54.350Z,0.70
2023-01-19T03:40:21.135Z,0.70
2023-01-19T03:42:48.105Z,0.70
2023-01-19T03:45:14.954Z,0.70
2023-01-19T03:47:41.942Z,0.70
2023-01-19T03:50:11.691Z,0.70
2023-01-19T03:52:38.501Z,0.70
2023-01-19T03:55:05.680Z,0.80
2023-01-19T03:57:32.654Z,0.80
2023-01-19T03:59:59.474Z,0.70
2023-01-19T04:02:27.044Z,0.70
2023-01-19T04:04:53.838Z,0.70
2023-01-19T04:07:20.640Z,0.80
2023-01-19T04:09:47.383Z,0.70
2023-01-19T04:12:14.171Z,0.70
2023-01-19T04:14:40.911Z,0.70
2023-01-19T04:17:07.651Z,0.70
2023-01-19T04:19:34.487Z,0.70
2023-01-19T04:22:01.974Z,0.80
2023-01-19T04:24:28.795Z,0.80
2023-01-19T04:26:55.566Z,0.90
2023-01-19T04:29:22.304Z,0.90
2023-01-19T04:31:49.135Z,0.90
2023-01-19T04:34:16.004Z,0.80
2023-01-19T04:36:42.883Z,0.80
2023-01-19T04:39:11.659Z,0.80
2023-01-19T04:41:38.405Z,0.80
2023-01-19T04:44:05.895Z,0.80
2023-01-19T04:46:32.713Z,0.70
2023-01-19T04:48:59.916Z,0.70
2023-01-19T04:51:26.721Z,0.70
2023-01-19T04:53:53.567Z,0.70
2023-01-19T04:56:20.505Z,0.60
2023-01-19T04:58:47.302Z,0.60
2023-01-19T05:01:14.075Z,0.60
2023-01-19T05:03:41.113Z,0.60
2023-01-19T05:06:08.095Z,0.60
2023-01-19T05:08:34.989Z,0.60
2023-01-19T05:11:01.958Z,0.60
2023-01-19T05:13:28.805Z,0.50
2023-01-19T05:15:55.722Z,0.50
2023-01-19T05:18:22.675Z,0.50
2023-01-19T05:20:49.485Z,0.50
2023-01-19T05:23:16.270Z,0.50
2023-01-19T05:25:44.462Z,0.50
2023-01-19T05:28:11.337Z,0.50
2023-01-19T05:30:38.517Z,0.50
2023-01-19T05:33:05.514Z,0.50
2023-01-19T05:35:36.328Z,0.50
2023-01-19T05:38:03.690Z,0.50
2023-01-19T05:40:30.464Z,0.40
2023-01-19T05:43:01.048Z,0.50
2023-01-19T05:45:28.443Z,0.40
2023-01-19T05:47:55.262Z,0.40
2023-01-19T05:50:22.170Z,0.40
2023-01-19T05:52:50.139Z,0.40
2023-01-19T05:55:17.315Z,0.50
2023-01-19T05:57:44.131Z,0.40
2023-01-19T06:00:11.470Z,0.40
2023-01-19T06:02:39.862Z,0.40
2023-01-19T06:05:06.866Z,0.40
2023-01-19T06:07:33.648Z,0.40
2023-01-19T06:10:00.446Z,0.40
2023-01-19T06:12:27.243Z,0.40
2023-01-19T06:14:54.035Z,0.40
2023-01-19T06:17:20.850Z,0.40
2023-01-19T06:19:47.623Z,0.40
2023-01-19T06:22:14.380Z,0.40
2023-01-19T06:24:41.170Z,0.30
2023-01-19T06:27:08.020Z,0.40
2023-01-19T06:29:34.808Z,0.40
2023-01-19T06:32:01.598Z,0.40
2023-01-19T06:34:28.949Z,0.40
2023-01-19T06:36:58.900Z,0.40
2023-01-19T06:39:25.692Z,0.40
2023-01-19T06:41:52.497Z,0.50
2023-01-19T06:44:19.259Z,0.50
2023-01-19T06:46:46.332Z,0.50
2023-01-19T06:49:13.137Z,0.60
2023-01-19T06:51:39.951Z,0.60
2023-01-19T06:54:06.779Z,0.60
2023-01-19T06:56:33.500Z,0.60
2023-01-19T06:59:00.709Z,0.60
2023-01-19T07:01:27.603Z,0.70
2023-01-19T07:03:54.616Z,0.70
2023-01-19T07:06:21.401Z,0.70
2023-01-19T07:08:48.145Z,0.70
2023-01-19T07:11:26.724Z,0.70
2023-01-19T07:13:58.167Z,0.80
2023-01-19T07:16:25.232Z,0.80
2023-01-19T07:18:52.122Z,0.80
2023-01-19T07:21:19.161Z,0.80
2023-01-19T07:23:49.024Z,0.80
2023-01-19T07:26:18.544Z,0.80
2023-01-19T07:28:46.806Z,0.80
2023-01-19T07:31:14.532Z,0.80
2023-01-19T07:33:41.437Z,0.80
2023-01-19T07:36:08.919Z,0.90
2023-01-19T07:38:35.768Z,0.90
2023-01-19T07:41:06.420Z,1.00
2023-01-19T07:43:33.755Z,1.10
2023-01-19T07:46:01.724Z,1.40
2023-01-19T07:48:28.655Z,1.80
2023-01-19T07:51:05.792Z,2.20
2023-01-19T07:53:32.903Z,2.50
2023-01-19T07:55:59.739Z,2.70
2023-01-19T07:58:26.800Z,2.90
2023-01-19T08:00:53.804Z,3.00
2023-01-19T08:03:20.678Z,3.00
2023-01-19T08:05:50.779Z,3.10
2023-01-19T08:08:18.253Z,3.10
2023-01-19T08:10:45.258Z,3.00
2023-01-19T08:13:12.139Z,3.00
2023-01-19T08:15:39.019Z,2.90
2023-01-19T08:18:06.865Z,2.70
2023-01-19T08:20:33.710Z,2.60
2023-01-19T08:23:03.567Z,2.50
2023-01-19T08:25:42.288Z,2.40
2023-01-19T08:28:09.344Z,2.30
2023-01-19T08:30:36.194Z,2.20
2023-01-19T08:33:08.042Z,2.10
2023-01-19T08:35:37.118Z,2.00
2023-01-19T08:38:04.972Z,1.90
2023-01-19T08:40:35.693Z,1.90
2023-01-19T08:43:09.097Z,1.90
2023-01-19T08:45:36.682Z,1.90
2023-01-19T08:48:04.078Z,2.00
2023-01-19T08:50:31.782Z,2.00
2023-01-19T08:53:02.965Z,2.00
2023-01-19T08:55:30.167Z,2.00
2023-01-19T08:57:58.011Z,2.00
2023-01-19T09:00:27.622Z,1.90
2023-01-19T09:02:54.975Z,1.90
2023-01-19T09:05:22.267Z,1.90
2023-01-19T09:07:49.126Z,1.80
2023-01-19T09:10:16.407Z,1.70
2023-01-19T09:12:44.833Z,1.70
2023-01-19T09:15:13.774Z,1.70
2023-01-19T09:17:43.700Z,1.70
2023-01-19T09:20:10.934Z,1.70
2023-01-19T09:22:39.685Z,1.70
2023-01-19T09:25:07.708Z,1.80
2023-01-19T09:27:34.925Z,1.90
2023-01-19T09:30:02.336Z,2.00
2023-01-19T09:32:29.157Z,2.10
2023-01-19T09:34:56.512Z,2.10
2023-01-19T09:37:23.399Z,2.30
2023-01-19T09:39:50.294Z,2.40
2023-01-19T09:42:36.024Z,2.50
2023-01-19T09:45:04.964Z,2.70
2023-01-19T09:47:31.738Z,2.80
2023-01-19T09:50:06.713Z,2.90
2023-01-19T09:52:35.968Z,2.90
2023-01-19T09:55:02.706Z,3.00
2023-01-19T09:57:30.220Z,3.10
2023-01-19T10:00:00.014Z,3.20
2023-01-19T10:02:48.982Z,3.30
2023-01-19T10:05:32.704Z,3.40
2023-01-19T10:08:08.927Z,3.50
2023-01-19T10:10:36.846Z,3.60
2023-01-19T10:13:34.723Z,3.70
2023-01-19T10:16:07.117Z,3.90
2023-01-19T10:18:43.068Z,4.00
2023-01-19T10:21:18.980Z,4.10
2023-01-19T10:23:58.217Z,4.20
2023-01-19T10:26:28.056Z,4.40
2023-01-19T10:28:57.540Z,4.50
2023-01-19T10:31:25.008Z,4.70
2023-01-19T10:33:52.534Z,4.80
2023-01-19T10:36:34.458Z,5.00
2023-01-19T10:39:01.298Z,5.10
2023-01-19T10:41:52.001Z,5.20
2023-01-19T10:44:26.450Z,5.40
2023-01-19T10:46:54.445Z,5.50
2023-01-19T10:49:44.720Z,5.70
2023-01-19T10:52:32.996Z,5.70
2023-01-19T10:55:01.000Z,5.90
2023-01-19T10:57:28.602Z,6.00
2023-01-19T10:59:55.442Z,6.10
2023-01-19T11:02:27.680Z,6.20
2023-01-19T11:05:02.224Z,6.20
2023-01-19T11:07:33.454Z,6.40
2023-01-19T11:10:15.523Z,6.50
2023-01-19T11:12:43.703Z,6.60
2023-01-19T11:15:21.454Z,6.70
2023-01-19T11:17:48.468Z,6.80
2023-01-19T11:20:23.350Z,6.90
2023-01-19T11:23:23.003Z,7.00
2023-01-19T11:25:50.801Z,7.10
2023-01-19T11:28:28.952Z,7.20
2023-01-19T11:31:03.621Z,7.40
2023-01-19T11:33:34.346Z,7.60
2023-01-19T11:36:25.808Z,7.90
2023-01-19T11:38:57.159Z,8.00
2023-01-19T11:41:26.658Z,8.00
2023-01-19T11:43:58.023Z,8.00
2023-01-19T11:46:26.516Z,8.00
2023-01-19T11:49:01.840Z,8.00
2023-01-19T11:51:56.684Z,7.90
2023-01-19T11:54:27.195Z,7.90
2023-01-19T11:56:54.425Z,7.80
2023-01-19T11:59:21.445Z,7.80
2023-01-19T12:01:50.840Z,7.90
2023-01-19T12:04:31.553Z,8.10
2023-01-19T12:06:59.174Z,8.20
2023-01-19T12:09:31.149Z,8.30
2023-01-19T12:12:04.081Z,8.30
2023-01-19T12:14:55.007Z,8.40
2023-01-19T12:17:34.100Z,8.40
2023-01-19T12:20:24.548Z,8.40
2023-01-19T12:22:59.804Z,8.40
2023-01-19T12:25:35.126Z,8.40
2023-01-19T12:28:01.942Z,8.30
2023-01-19T12:30:29.465Z,8.20
2023-01-19T12:33:23.405Z,8.20
2023-01-19T12:36:18.631Z,8.40
2023-01-19T12:39:20.139Z,8.90
2023-01-19T12:41:47.286Z,9.60
2023-01-19T12:44:16.199Z,10.20
2023-01-19T12:47:06.340Z,10.60
2023-01-19T12:49:43.017Z,10.90
2023-01-19T12:52:30.879Z,11.10
2023-01-19T12:55:17.961Z,11.40
2023-01-19T12:57:55.743Z,11.80
2023-01-19T13:00:22.509Z,12.30
2023-01-19T13:02:58.664Z,12.70
2023-01-19T13:05:33.110Z,13.20
2023-01-19T13:08:04.766Z,13.40
2023-01-19T13:10:52.569Z,13.30
2023-01-19T13:13:27.090Z,13.30
2023-01-19T13:15:55.783Z,13.10
2023-01-19T13:18:33.207Z,12.70
2023-01-19T13:21:06.639Z,12.30
2023-01-19T13:23:57.570Z,12.20
2023-01-19T13:26:26.288Z,12.40
2023-01-19T13:28:57.800Z,12.50
2023-01-19T13:31:25.051Z,12.70
2023-01-19T13:33:56.279Z,12.80
2023-01-19T13:36:33.556Z,13.20
2023-01-19T13:39:04.928Z,13.40
2023-01-19T13:41:35.005Z,13.90
2023-01-19T13:44:07.746Z,14.40
2023-01-19T13:46:34.621Z,14.60
2023-01-19T13:49:19.239Z,14.80
2023-01-19T13:51:46.870Z,14.90
2023-01-19T13:54:17.982Z,14.90
2023-01-19T13:56:50.216Z,14.90
2023-01-19T13:59:17.140Z,14.60
2023-01-19T14:01:45.148Z,14.40
2023-01-19T14:04:32.140Z,14.20
2023-01-19T14:07:04.293Z,14.40
2023-01-19T14:09:31.110Z,14.50
2023-01-19T14:12:25.685Z,14.60
2023-01-19T14:14:52.523Z,14.60
2023-01-19T14:17:29.416Z,14.80
2023-01-19T14:20:00.901Z,15.00
2023-01-19T14:22:57.435Z,15.10
2023-01-19T14:25:30.861Z,15.00
2023-01-19T14:28:26.510Z,14.90
2023-01-19T14:30:57.636Z,14.60
2023-01-19T14:33:45.354Z,14.30
2023-01-19T14:36:34.062Z,14.00
2023-01-19T14:39:01.281Z,13.70
2023-01-19T14:41:39.240Z,13.30
2023-01-19T14:44:15.900Z,13.10
2023-01-19T14:46:47.235Z,12.80
2023-01-19T14:49:30.301Z,12.70
2023-01-19T14:51:57.192Z,12.70
2023-01-19T14:54:31.582Z,12.50
2023-01-19T14:56:58.443Z,12.20
2023-01-19T14:59:25.186Z,11.90
2023-01-19T15:01:52.107Z,11.60
2023-01-19T15:04:19.034Z,11.30
2023-01-19T15:06:45.897Z,11.00
2023-01-19T15:09:13.724Z,10.60
2023-01-19T15:11:40.475Z,10.10
2023-01-19T15:14:08.864Z,9.60
2023-01-19T15:16:35.949Z,9.20
2023-01-19T15:19:02.812Z,8.90
2023-01-19T15:21:29.703Z,8.60
2023-01-19T15:24:00.594Z,8.40
2023-01-19T15:26:28.468Z,8.20
2023-01-19T15:28:56.056Z,7.90
2023-01-19T15:31:23.682Z,7.70
2023-01-19T15:33:50.518Z,7.60
2023-01-19T15:36:21.504Z,7.40
2023-01-19T15:38:50.816Z,7.30
2023-01-19T15:41:27.794Z,7.20
2023-01-19T15:43:54.602Z,7.10
2023-01-19T15:46:21.604Z,7.00
2023-01-19T15:48:51.596Z,6.80
2023-01-19T15:51:19.908Z,6.80
2023-01-19T15:53:46.881Z,6.70
2023-01-19T15:56:18.418Z,6.60
2023-01-19T15:58:45.194Z,6.50
2023-01-19T16:01:22.649Z,6.40
2023-01-19T16:03:49.891Z,6.40
2023-01-19T16:06:17.763Z,6.30
2023-01-19T16:08:44.870Z,6.20
2023-01-19T16:11:13.618Z,6.10
2023-01-19T16:13:40.544Z,6.00
2023-01-19T16:16:09.176Z,6.00
2023-01-19T16:18:36.201Z,5.90
2023-01-19T16:21:03.119Z,5.80
2023-01-19T16:23:29.912Z,5.70
2023-01-19T16:26:23.885Z,5.60
2023-01-19T16:28:50.688Z,5.60
2023-01-19T16:31:17.575Z,5.50
2023-01-19T16:33:47.466Z,5.40
2023-01-19T16:36:27.251Z,5.30
2023-01-19T16:38:54.310Z,5.20
2023-01-19T16:41:21.317Z,5.10
2023-01-19T16:43:52.794Z,5.00
2023-01-19T16:46:22.641Z,5.00
2023-01-19T16:48:50.159Z,4.90
2023-01-19T16:51:17.056Z,4.90
2023-01-19T16:53:43.990Z,4.80
2023-01-19T16:56:12.366Z,4.80
2023-01-19T16:58:39.506Z,4.70
2023-01-19T17:01:10.282Z,4.70
2023-01-19T17:03:38.519Z,4.60
2023-01-19T17:06:09.468Z,4.60
2023-01-19T17:08:36.355Z,4.50
2023-01-19T17:11:11.555Z,4.50
2023-01-19T17:13:38.653Z,4.60
2023-01-19T17:16:05.917Z,4.90
2023-01-19T17:18:33.682Z,5.30
2023-01-19T17:21:02.078Z,5.60
2023-01-19T17:23:29.603Z,5.80
2023-01-19T17:25:56.775Z,6.00
2023-01-19T17:28:23.771Z,6.20
2023-01-19T17:30:53.383Z,6.30
2023-01-19T17:33:24.323Z,6.40
2023-01-19T17:35:51.169Z,6.40
2023-01-19T17:38:17.937Z,6.40
2023-01-19T17:40:44.932Z,6.40
2023-01-19T17:43:11.732Z,6.40
2023-01-19T17:45:38.552Z,6.40
2023-01-19T17:48:05.577Z,6.40
2023-01-19T17:50:34.544Z,6.40
2023-01-19T17:53:01.363Z,6.40
2023-01-19T17:55:28.136Z,6.40
2023-01-19T17:57:54.988Z,6.50
2023-01-19T18:00:22.156Z,6.50
2023-01-19T18:02:50.729Z,6.40
2023-01-19T18:05:18.274Z,6.30
2023-01-19T18:07:45.205Z,6.20
2023-01-19T18:10:12.404Z,6.20
2023-01-19T18:12:39.401Z,6.20
2023-01-19T18:15:06.984Z,6.10
2023-01-19T18:17:33.854Z,6.10
2023-01-19T18:20:00.630Z,6.00
2023-01-19T18:22:27.464Z,5.90
2023-01-19T18:24:54.325Z,5.80
2023-01-19T18:27:21.904Z,5.70
2023-01-19T18:29:49.707Z,5.60
2023-01-19T18:32:16.517Z,5.50
2023-01-19T18:34:43.341Z,5.40
2023-01-19T18:37:10.099Z,5.40
2023-01-19T18:39:37.002Z,5.30
2023-01-19T18:42:03.820Z,5.20
2023-01-19T18:44:30.727Z,5.20
2023-01-19T18:46:58.076Z,5.20
2023-01-19T18:49:24.918Z,5.30
2023-01-19T18:51:51.684Z,5.30
2023-01-19T18:54:18.515Z,5.20
2023-01-19T18:56:46.687Z,5.10
2023-01-19T18:59:13.489Z,5.10
2023-01-19T19:01:40.486Z,5.00
2023-01-19T19:04:08.253Z,5.00
2023-01-19T19:06:35.809Z,5.00
2023-01-19T19:09:03.268Z,5.00
2023-01-19T19:11:32.551Z,5.10
2023-01-19T19:14:00.748Z,5.20
2023-01-19T19:16:27.714Z,5.30
2023-01-19T19:18:54.855Z,5.30
2023-01-19T19:21:22.161Z,5.30
2023-01-19T19:23:53.363Z,5.30
2023-01-19T19:26:20.283Z,5.30
2023-01-19T19:28:47.386Z,5.30
2023-01-19T19:31:20.549Z,5.30
2023-01-19T19:33:48.570Z,5.30
2023-01-19T19:36:15.343Z,5.40
2023-01-19T19:38:44.312Z,5.50
2023-01-19T19:41:12.888Z,5.40
2023-01-19T19:43:39.715Z,5.40
2023-01-19T19:46:11.083Z,5.30
2023-01-19T19:48:39.353Z,5.30
2023-01-19T19:51:19.276Z,5.30
2023-01-19T19:53:48.950Z,5.30
2023-01-19T19:56:19.789Z,5.40
2023-01-19T19:58:46.767Z,5.40
2023-01-19T20:01:25.364Z,5.40
2023-01-19T20:03:53.871Z,5.30
2023-01-19T20:06:22.067Z,5.10
2023-01-19T20:08:49.440Z,4.90
2023-01-19T20:11:36.663Z,4.80
2023-01-19T20:14:07.371Z,4.60
2023-01-19T20:16:35.394Z,4.50
2023-01-19T20:19:02.369Z,4.50
2023-01-19T20:21:39.357Z,4.50
2023-01-19T20:24:11.475Z,4.60
2023-01-19T20:26:40.315Z,4.60
2023-01-19T20:29:07.213Z,4.50
2023-01-19T20:31:35.821Z,4.50
2023-01-19T20:34:04.460Z,4.30
2023-01-19T20:36:32.220Z,4.10
2023-01-19T20:38:59.161Z,3.90
2023-01-19T20:41:26.009Z,3.70
2023-01-19T20:43:53.038Z,3.60
2023-01-19T20:46:19.986Z,3.40
2023-01-19T20:48:50.816Z,3.20
2023-01-19T20:51:18.866Z,3.10
2023-01-19T20:53:45.890Z,3.00
2023-01-19T20:56:13.312Z,2.90
2023-01-19T20:58:40.300Z,2.80
2023-01-19T21:01:21.218Z,2.70
2023-01-19T21:03:48.199Z,2.70
2023-01-19T21:06:15.266Z,2.60
2023-01-19T21:08:42.462Z,2.50
2023-01-19T21:11:09.830Z,2.50
2023-01-19T21:13:37.131Z,2.50
2023-01-19T21:16:04.965Z,2.40
2023-01-19T21:18:31.854Z,2.40
2023-01-19T21:20:58.724Z,2.30
2023-01-19T21:23:26.407Z,2.30
2023-01-19T21:25:54.484Z,2.30
2023-01-19T21:28:22.695Z,2.20
2023-01-19T21:30:51.740Z,2.20
2023-01-19T21:33:18.827Z,2.20
2023-01-19T21:35:53.895Z,2.20
2023-01-19T21:38:21.808Z,2.20
2023-01-19T21:40:50.210Z,2.20
2023-01-19T21:43:19.243Z,2.20
2023-01-19T21:45:47.018Z,2.30
2023-01-19T21:48:14.080Z,2.30
2023-01-19T21:50:41.185Z,2.30
2023-01-19T21:53:11.495Z,2.30
2023-01-19T21:55:40.796Z,2.20
2023-01-19T21:58:07.668Z,2.20
2023-01-19T22:00:34.545Z,2.20
2023-01-19T22:03:04.834Z,2.20
2023-01-19T22:05:36.757Z,2.30
2023-01-19T22:08:05.219Z,2.30
2023-01-19T22:10:33.032Z,2.40
2023-01-19T22:13:00.294Z,2.50
2023-01-19T22:15:27.901Z,2.50
2023-01-19T22:17:55.414Z,2.50
2023-01-19T22:20:22.383Z,2.50
2023-01-19T22:22:49.142Z,2.40
2023-01-19T22:25:16.166Z,2.30
2023-01-19T22:27:44.198Z,2.30
2023-01-19T22:30:11.537Z,2.20
2023-01-19T22:32:38.482Z,2.10
2023-01-19T22:35:05.803Z,2.10
2023-01-19T22:37:36.511Z,2.00
2023-01-19T22:40:08.271Z,2.00
2023-01-19T22:42:35.171Z,1.90
2023-01-19T22:45:02.070Z,1.90
2023-01-19T22:47:29.351Z,1.90
2023-01-19T22:49:56.138Z,1.90
2023-01-19T22:52:22.932Z,1.90
2023-01-19T22:54:49.737Z,2.00
2023-01-19T22:57:16.610Z,2.00
2023-01-19T22:59:43.687Z,2.00
2023-01-19T23:02:12.341Z,2.10
2023-01-19T23:04:39.542Z,2.10
2023-01-19T23:07:09.236Z,2.00
2023-01-19T23:09:36.886Z,2.10
2023-01-19T23:12:03.996Z,2.00
2023-01-19T23:14:30.750Z,2.00
2023-01-19T23:16:57.473Z,2.00
2023-01-19T23:19:24.222Z,1.90
2023-01-19T23:21:51.886Z,1.90
2023-01-19T23:24:18.950Z,1.90
2023-01-19T23:26:45.781Z,2.00
2023-01-19T23:29:13.988Z,2.10
2023-01-19T23:31:43.855Z,2.20
2023-01-19T23:34:11.019Z,2.40
2023-01-19T23:36:38.844Z,2.60
2023-01-19T23:39:09.908Z,2.60
2023-01-19T23:41:36.825Z,2.60
2023-01-19T23:44:04.062Z,2.60
2023-01-19T23:46:31.040Z,2.50
2023-01-19T23:48:57.948Z,2.40
2023-01-19T23:51:28.473Z,2.40
2023-01-19T23:53:55.846Z,2.30
2023-01-19T23:56:23.655Z,2.30
2023-01-19T23:58:57.794Z,2.20
